createdAt,value
2018-11-23T00:00:32.497Z,21.79
2018-11-23T00:01:35.901Z,21.85
2018-11-23T00:02:39.321Z,21.91
2018-11-23T00:03:42.729Z,21.95
2018-11-23T00:04:46.180Z,21.97
2018-11-23T00:05:49.605Z,22.02
2018-11-23T00:06:52.992Z,22.07
2018-11-23T00:07:57.136Z,22.07
2018-11-23T00:09:00.525Z,22.05
2018-11-23T00:10:04.080Z,22.07
2018-11-23T00:11:07.470Z,22.02
2018-11-23T00:12:10.842Z,22.08
2018-11-23T00:13:14.301Z,22.06
2018-11-23T00:14:17.781Z,22.02
2018-11-23T00:15:22.284Z,21.98
2018-11-23T00:16:25.713Z,21.95
2018-11-23T00:17:29.112Z,21.93
2018-11-23T00:18:32.547Z,21.91
2018-11-23T00:19:35.991Z,21.90
2018-11-23T00:20:39.389Z,21.85
2018-11-23T00:21:42.758Z,21.83
2018-11-23T00:22:46.263Z,21.81
2018-11-23T00:23:49.674Z,21.85
2018-11-23T00:24:53.120Z,21.84
2018-11-23T00:25:56.535Z,21.93
2018-11-23T00:26:59.927Z,21.96
2018-11-23T00:28:03.453Z,22.02
2018-11-23T00:29:06.873Z,22.02
2018-11-23T00:30:12.461Z,22.06
2018-11-23T00:31:15.976Z,22.13
2018-11-23T00:32:19.350Z,22.16
2018-11-23T00:33:22.721Z,22.13
2018-11-23T00:34:26.126Z,22.15
2018-11-23T00:35:30.707Z,22.11
2018-11-23T00:36:34.118Z,22.03
2018-11-23T00:37:37.515Z,22.04
2018-11-23T00:38:40.916Z,22.00
2018-11-23T00:39:45.106Z,21.97
2018-11-23T00:40:48.513Z,21.93
2018-11-23T00:41:52.117Z,21.91
2018-11-23T00:42:55.823Z,21.88
2018-11-23T00:43:59.262Z,21.83
2018-11-23T00:45:02.800Z,21.76
2018-11-23T00:46:07.150Z,21.77
2018-11-23T00:47:10.551Z,21.76
2018-11-23T00:48:13.970Z,21.76
2018-11-23T00:49:17.398Z,21.74
2018-11-23T00:50:22.022Z,21.83
2018-11-23T00:51:25.457Z,21.90
2018-11-23T00:52:28.875Z,21.95
2018-11-23T00:53:32.302Z,21.96
2018-11-23T00:54:35.721Z,22.02
2018-11-23T00:55:39.143Z,22.00
2018-11-23T00:56:42.568Z,22.04
2018-11-23T00:57:45.997Z,22.03
2018-11-23T00:58:49.424Z,22.07
2018-11-23T00:59:52.870Z,22.06
2018-11-23T01:00:56.256Z,22.03
2018-11-23T01:02:03.776Z,22.02
2018-11-23T01:03:07.181Z,21.99
2018-11-23T01:04:10.624Z,21.92
2018-11-23T01:05:15.679Z,21.92
2018-11-23T01:06:19.118Z,21.88
2018-11-23T01:07:22.586Z,21.86
2018-11-23T01:08:25.985Z,21.85
2018-11-23T01:09:29.375Z,21.82
2018-11-23T01:10:32.807Z,21.77
2018-11-23T01:11:36.261Z,21.77
2018-11-23T01:12:39.906Z,21.73
2018-11-23T01:13:43.429Z,21.70
2018-11-23T01:14:46.807Z,21.79
2018-11-23T01:15:50.242Z,21.87
2018-11-23T01:16:53.653Z,21.93
2018-11-23T01:17:57.083Z,21.96
2018-11-23T01:19:00.500Z,22.00
2018-11-23T01:20:04.187Z,22.05
2018-11-23T01:21:07.664Z,22.06
2018-11-23T01:22:11.179Z,22.08
2018-11-23T01:23:14.574Z,22.13
2018-11-23T01:24:18.258Z,22.14
2018-11-23T01:25:22.642Z,22.11
2018-11-23T01:26:26.209Z,22.09
2018-11-23T01:27:29.610Z,22.04
2018-11-23T01:28:33.041Z,22.01
2018-11-23T01:29:36.480Z,21.96
2018-11-23T01:30:39.992Z,21.95
2018-11-23T01:31:43.753Z,21.92
2018-11-23T01:32:47.301Z,21.87
2018-11-23T01:33:50.775Z,21.84
2018-11-23T01:34:55.503Z,21.80
2018-11-23T01:35:58.943Z,21.77
2018-11-23T01:37:02.610Z,21.77
2018-11-23T01:38:06.111Z,21.78
2018-11-23T01:39:10.679Z,21.84
2018-11-23T01:40:30.172Z,21.90
2018-11-23T01:41:33.609Z,21.98
2018-11-23T01:42:37.084Z,22.00
2018-11-23T01:43:40.459Z,22.01
2018-11-23T01:44:51.316Z,22.03
2018-11-23T01:45:54.746Z,22.11
2018-11-23T01:46:58.157Z,22.11
2018-11-23T01:48:01.692Z,22.11
2018-11-23T01:49:05.668Z,22.11
2018-11-23T01:50:12.308Z,22.11
2018-11-23T01:51:15.898Z,22.07
2018-11-23T01:52:19.335Z,22.08
2018-11-23T01:53:22.755Z,22.03
2018-11-23T01:54:26.174Z,22.00
2018-11-23T01:55:29.577Z,21.97
2018-11-23T01:56:33.308Z,21.93
2018-11-23T01:57:37.246Z,21.89
2018-11-23T01:58:40.827Z,21.88
2018-11-23T01:59:44.296Z,21.85
2018-11-23T02:00:47.739Z,21.81
2018-11-23T02:01:51.170Z,21.76
2018-11-23T02:02:55.238Z,21.75
2018-11-23T02:03:58.678Z,21.79
2018-11-23T02:05:02.101Z,21.84
2018-11-23T02:06:05.646Z,21.86
2018-11-23T02:07:09.071Z,21.91
2018-11-23T02:08:12.908Z,21.96
2018-11-23T02:09:16.450Z,22.02
2018-11-23T02:10:20.629Z,22.09
2018-11-23T02:11:24.430Z,22.09
2018-11-23T02:12:27.868Z,22.14
2018-11-23T02:13:31.346Z,22.13
2018-11-23T02:14:34.786Z,22.12
2018-11-23T02:15:38.189Z,22.09
2018-11-23T02:16:41.607Z,22.08
2018-11-23T02:17:45.195Z,22.04
2018-11-23T02:18:48.609Z,21.98
2018-11-23T02:19:53.748Z,21.98
2018-11-23T02:20:57.305Z,21.97
2018-11-23T02:22:00.726Z,21.92
2018-11-23T02:23:04.114Z,21.91
2018-11-23T02:24:07.571Z,21.88
2018-11-23T02:25:11.062Z,21.84
2018-11-23T02:26:15.142Z,21.80
2018-11-23T02:27:18.567Z,21.77
2018-11-23T02:28:22.041Z,21.76
2018-11-23T02:29:25.552Z,21.75
2018-11-23T02:30:29.060Z,21.83
2018-11-23T02:31:33.027Z,21.89
2018-11-23T02:32:36.806Z,21.98
2018-11-23T02:33:41.308Z,22.01
2018-11-23T02:34:44.762Z,22.06
2018-11-23T02:35:48.427Z,22.08
2018-11-23T02:36:51.909Z,22.10
2018-11-23T02:37:55.400Z,22.15
2018-11-23T02:38:58.872Z,22.16
2018-11-23T02:40:02.299Z,22.15
2018-11-23T02:41:05.846Z,22.12
2018-11-23T02:42:09.524Z,22.11
2018-11-23T02:43:12.947Z,22.08
2018-11-23T02:44:16.793Z,22.06
2018-11-23T02:45:21.418Z,22.02
2018-11-23T02:46:24.848Z,22.02
2018-11-23T02:47:28.448Z,21.95
2018-11-23T02:48:32.361Z,21.93
2018-11-23T02:49:36.293Z,21.90
2018-11-23T02:50:39.712Z,21.88
2018-11-23T02:51:43.220Z,21.82
2018-11-23T02:52:47.170Z,21.81
2018-11-23T02:53:50.623Z,21.80
2018-11-23T02:54:54.038Z,21.78
2018-11-23T02:55:57.592Z,21.85
2018-11-23T02:57:01.068Z,21.86
2018-11-23T02:58:05.100Z,21.87
2018-11-23T02:59:08.783Z,21.91
2018-11-23T03:00:14.896Z,21.97
2018-11-23T03:01:18.413Z,22.00
2018-11-23T03:02:21.843Z,22.05
2018-11-23T03:03:25.321Z,22.07
2018-11-23T03:04:28.765Z,22.10
2018-11-23T03:05:32.184Z,22.11
2018-11-23T03:06:35.854Z,22.09
2018-11-23T03:07:39.361Z,22.07
2018-11-23T03:08:42.813Z,22.07
2018-11-23T03:09:46.297Z,22.00
2018-11-23T03:10:49.735Z,22.00
2018-11-23T03:11:53.161Z,21.99
2018-11-23T03:12:56.586Z,21.97
2018-11-23T03:14:00.110Z,21.91
2018-11-23T03:15:03.746Z,21.89
2018-11-23T03:16:07.183Z,21.83
2018-11-23T03:17:10.628Z,21.81
2018-11-23T03:18:14.118Z,21.79
2018-11-23T03:19:17.631Z,21.77
2018-11-23T03:20:22.164Z,21.78
2018-11-23T03:21:25.715Z,21.78
2018-11-23T03:22:29.191Z,21.84
2018-11-23T03:23:32.739Z,21.89
2018-11-23T03:24:36.186Z,21.94
2018-11-23T03:25:39.663Z,21.95
2018-11-23T03:26:43.093Z,22.01
2018-11-23T03:27:46.522Z,22.06
2018-11-23T03:28:50.037Z,22.09
2018-11-23T03:29:53.438Z,22.09
2018-11-23T03:30:56.889Z,22.09
2018-11-23T03:32:00.351Z,22.10
2018-11-23T03:33:03.798Z,22.06
2018-11-23T03:34:07.434Z,22.09
2018-11-23T03:35:10.923Z,22.09
2018-11-23T03:36:14.890Z,22.08
2018-11-23T03:37:18.647Z,22.05
2018-11-23T03:38:22.063Z,21.96
2018-11-23T03:39:25.559Z,21.97
2018-11-23T03:40:29.021Z,21.94
2018-11-23T03:41:32.431Z,21.90
2018-11-23T03:42:35.843Z,21.89
2018-11-23T03:43:39.304Z,21.86
2018-11-23T03:44:43.032Z,21.85
2018-11-23T03:45:46.606Z,21.85
2018-11-23T03:46:50.048Z,21.90
2018-11-23T03:47:53.458Z,21.94
2018-11-23T03:48:57.076Z,21.97
2018-11-23T03:50:00.822Z,22.02
2018-11-23T03:51:04.254Z,22.08
2018-11-23T03:52:07.914Z,22.07
2018-11-23T03:53:11.361Z,22.07
2018-11-23T03:54:15.025Z,22.16
2018-11-23T03:55:18.588Z,22.11
2018-11-23T03:56:22.007Z,22.16
2018-11-23T03:57:25.472Z,22.15
2018-11-23T03:58:28.868Z,22.11
2018-11-23T03:59:32.382Z,22.08
2018-11-23T04:00:35.796Z,22.08
2018-11-23T04:01:39.217Z,22.06
2018-11-23T04:02:42.686Z,21.97
2018-11-23T04:03:46.482Z,21.96
2018-11-23T04:04:50.035Z,21.91
2018-11-23T04:05:53.510Z,21.88
2018-11-23T04:06:56.910Z,21.85
2018-11-23T04:08:00.584Z,21.79
2018-11-23T04:09:04.705Z,21.77
2018-11-23T04:10:09.797Z,21.72
2018-11-23T04:11:13.255Z,21.67
2018-11-23T04:12:16.760Z,21.66
2018-11-23T04:13:20.206Z,21.60
2018-11-23T04:14:23.627Z,21.57
2018-11-23T04:15:27.084Z,21.50
2018-11-23T04:16:30.561Z,21.50
2018-11-23T04:17:34.018Z,21.47
2018-11-23T04:18:37.582Z,21.37
2018-11-23T04:19:41.009Z,21.37
2018-11-23T04:20:50.773Z,21.33
2018-11-23T04:21:54.363Z,21.28
2018-11-23T04:22:57.880Z,21.26
2018-11-23T04:24:01.331Z,21.21
2018-11-23T04:25:04.903Z,21.19
2018-11-23T04:26:08.561Z,21.16
2018-11-23T04:27:12.142Z,21.12
2018-11-23T04:28:15.698Z,21.08
2018-11-23T04:29:19.236Z,21.03
2018-11-23T04:30:22.675Z,21.02
2018-11-23T04:31:26.195Z,20.98
2018-11-23T04:32:29.711Z,20.95
2018-11-23T04:33:33.183Z,20.91
2018-11-23T04:34:37.008Z,20.90
2018-11-23T04:35:40.464Z,20.86
2018-11-23T04:36:44.610Z,20.82
2018-11-23T04:37:48.996Z,20.79
2018-11-23T04:38:52.670Z,20.78
2018-11-23T04:39:56.081Z,20.76
2018-11-23T04:40:59.738Z,20.73
2018-11-23T04:42:03.293Z,20.69
2018-11-23T04:43:06.860Z,20.68
2018-11-23T04:44:10.284Z,20.67
2018-11-23T04:45:14.337Z,20.64
2018-11-23T04:46:18.058Z,20.62
2018-11-23T04:47:21.619Z,20.60
2018-11-23T04:48:25.253Z,20.58
2018-11-23T04:49:28.685Z,20.55
2018-11-23T04:50:32.348Z,20.49
2018-11-23T04:51:35.801Z,20.51
2018-11-23T04:52:39.317Z,20.47
2018-11-23T04:53:42.923Z,20.45
2018-11-23T04:54:46.361Z,20.39
2018-11-23T04:55:49.841Z,20.39
2018-11-23T04:56:53.298Z,20.37
2018-11-23T04:57:56.790Z,20.35
2018-11-23T04:59:00.181Z,20.33
2018-11-23T05:00:03.763Z,20.31
2018-11-23T05:01:07.573Z,20.28
2018-11-23T05:02:11.108Z,20.27
2018-11-23T05:03:14.830Z,20.24
2018-11-23T05:04:18.270Z,20.22
2018-11-23T05:05:21.786Z,20.20
2018-11-23T05:06:25.282Z,20.18
2018-11-23T05:07:28.721Z,20.16
2018-11-23T05:08:32.535Z,20.15
2018-11-23T05:09:35.983Z,20.13
2018-11-23T05:10:39.446Z,20.12
2018-11-23T05:11:42.886Z,20.10
2018-11-23T05:12:46.807Z,20.08
2018-11-23T05:13:50.351Z,20.07
2018-11-23T05:14:53.749Z,20.06
2018-11-23T05:15:57.251Z,20.03
2018-11-23T05:17:00.711Z,20.02
2018-11-23T05:18:04.570Z,20.01
2018-11-23T05:19:07.983Z,20.01
2018-11-23T05:20:12.101Z,19.98
2018-11-23T05:21:15.554Z,19.97
2018-11-23T05:22:19.004Z,19.95
2018-11-23T05:23:22.419Z,19.94
2018-11-23T05:24:25.856Z,19.92
2018-11-23T05:25:29.304Z,19.91
2018-11-23T05:26:33.357Z,19.90
2018-11-23T05:27:36.927Z,19.88
2018-11-23T05:28:40.360Z,19.87
2018-11-23T05:29:43.809Z,19.85
2018-11-23T05:30:47.277Z,19.84
2018-11-23T05:31:50.703Z,19.85
2018-11-23T05:32:54.558Z,19.87
2018-11-23T05:33:57.973Z,19.88
2018-11-23T05:35:01.401Z,19.90
2018-11-23T05:36:04.869Z,19.94
2018-11-23T05:37:08.397Z,20.01
2018-11-23T05:38:11.859Z,20.09
2018-11-23T05:39:15.499Z,20.20
2018-11-23T05:40:20.415Z,20.26
2018-11-23T05:41:23.907Z,20.32
2018-11-23T05:42:27.362Z,20.38
2018-11-23T05:43:30.810Z,20.43
2018-11-23T05:44:34.260Z,20.47
2018-11-23T05:45:37.818Z,20.52
2018-11-23T05:46:41.276Z,20.56
2018-11-23T05:47:45.088Z,20.58
2018-11-23T05:48:48.744Z,20.59
2018-11-23T05:49:52.171Z,20.61
2018-11-23T05:50:55.783Z,20.64
2018-11-23T05:51:59.234Z,20.63
2018-11-23T05:53:02.703Z,20.64
2018-11-23T05:54:06.527Z,20.65
2018-11-23T05:55:10.584Z,20.64
2018-11-23T05:56:14.093Z,20.62
2018-11-23T05:57:17.877Z,20.60
2018-11-23T05:58:21.297Z,20.58
2018-11-23T05:59:24.683Z,20.57
2018-11-23T06:00:29.755Z,20.53
2018-11-23T06:01:33.299Z,20.51
2018-11-23T06:02:36.932Z,20.47
2018-11-23T06:03:40.443Z,20.43
2018-11-23T06:04:43.885Z,20.39
2018-11-23T06:05:47.537Z,20.36
2018-11-23T06:06:51.018Z,20.35
2018-11-23T06:07:54.576Z,20.33
2018-11-23T06:08:58.333Z,20.29
2018-11-23T06:10:01.807Z,20.32
2018-11-23T06:11:06.319Z,20.31
2018-11-23T06:12:09.787Z,20.31
2018-11-23T06:13:13.234Z,20.28
2018-11-23T06:14:17.138Z,20.27
2018-11-23T06:15:22.667Z,20.28
2018-11-23T06:16:26.094Z,20.30
2018-11-23T06:17:29.762Z,20.35
2018-11-23T06:18:33.448Z,20.41
2018-11-23T06:19:37.014Z,20.48
2018-11-23T06:20:40.673Z,20.52
2018-11-23T06:21:44.099Z,20.58
2018-11-23T06:22:48.564Z,20.63
2018-11-23T06:23:52.112Z,20.65
2018-11-23T06:24:56.120Z,20.73
2018-11-23T06:26:07.186Z,20.74
2018-11-23T06:27:10.667Z,20.73
2018-11-23T06:28:14.538Z,20.73
2018-11-23T06:29:18.540Z,20.72
2018-11-23T06:30:24.585Z,20.73
2018-11-23T06:31:29.533Z,20.69
2018-11-23T06:32:44.560Z,20.70
2018-11-23T06:33:49.631Z,20.67
2018-11-23T06:34:53.530Z,20.64
2018-11-23T06:35:56.960Z,20.61
2018-11-23T06:37:00.415Z,20.58
2018-11-23T06:38:03.856Z,20.56
2018-11-23T06:39:09.305Z,20.52
2018-11-23T06:40:12.793Z,20.47
2018-11-23T06:41:16.322Z,20.45
2018-11-23T06:42:19.793Z,20.40
2018-11-23T06:43:23.432Z,20.39
2018-11-23T06:44:30.054Z,20.38
2018-11-23T06:45:37.017Z,20.36
2018-11-23T06:46:41.869Z,20.34
2018-11-23T06:47:45.319Z,20.32
2018-11-23T06:48:48.750Z,20.31
2018-11-23T06:49:52.143Z,20.30
2018-11-23T06:50:55.912Z,20.29
2018-11-23T06:51:59.310Z,20.27
2018-11-23T06:53:02.747Z,20.23
2018-11-23T06:54:06.327Z,20.21
2018-11-23T06:55:10.666Z,20.19
2018-11-23T06:56:14.383Z,20.16
2018-11-23T06:57:18.207Z,20.14
2018-11-23T06:58:21.779Z,20.15
2018-11-23T06:59:25.237Z,20.18
2018-11-23T07:00:28.693Z,20.28
2018-11-23T07:01:32.409Z,20.32
2018-11-23T07:02:35.828Z,20.40
2018-11-23T07:03:39.277Z,20.43
2018-11-23T07:04:42.869Z,20.51
2018-11-23T07:05:46.480Z,20.56
2018-11-23T07:06:49.986Z,20.59
2018-11-23T07:07:53.420Z,20.60
2018-11-23T07:08:56.829Z,20.63
2018-11-23T07:10:00.248Z,20.67
2018-11-23T07:11:04.203Z,20.70
2018-11-23T07:12:07.659Z,20.67
2018-11-23T07:13:11.163Z,20.67
2018-11-23T07:14:15.581Z,20.69
2018-11-23T07:15:20.521Z,20.67
2018-11-23T07:16:23.944Z,20.66
2018-11-23T07:17:27.783Z,20.65
2018-11-23T07:18:31.357Z,20.64
2018-11-23T07:19:34.933Z,20.61
2018-11-23T07:20:38.535Z,20.60
2018-11-23T07:21:42.089Z,20.56
2018-11-23T07:22:45.621Z,20.53
2018-11-23T07:23:49.241Z,20.51
2018-11-23T07:24:52.641Z,20.48
2018-11-23T07:25:56.137Z,20.45
2018-11-23T07:26:59.533Z,20.46
2018-11-23T07:28:03.064Z,20.49
2018-11-23T07:29:06.579Z,20.53
2018-11-23T07:30:17.521Z,20.58
2018-11-23T07:31:20.981Z,20.64
2018-11-23T07:32:24.397Z,20.71
2018-11-23T07:33:27.822Z,20.76
2018-11-23T07:34:31.402Z,20.86
2018-11-23T07:35:34.867Z,20.93
2018-11-23T07:36:38.369Z,20.93
2018-11-23T07:37:41.811Z,20.92
2018-11-23T07:38:45.229Z,20.94
2018-11-23T07:40:00.028Z,20.96
2018-11-23T07:41:14.947Z,20.94
2018-11-23T07:42:21.428Z,20.91
2018-11-23T07:43:24.905Z,20.90
2018-11-23T07:44:28.561Z,20.90
2018-11-23T07:45:32.445Z,20.88
2018-11-23T07:46:35.947Z,20.83
2018-11-23T07:47:39.438Z,20.81
2018-11-23T07:48:42.859Z,20.81
2018-11-23T07:49:46.506Z,20.78
2018-11-23T07:50:49.984Z,20.76
2018-11-23T07:51:53.410Z,20.73
2018-11-23T07:52:56.858Z,20.69
2018-11-23T07:54:00.282Z,20.66
2018-11-23T07:55:04.005Z,20.63
2018-11-23T07:56:08.632Z,20.60
2018-11-23T07:57:12.627Z,20.60
2018-11-23T07:58:16.272Z,20.58
2018-11-23T07:59:19.681Z,20.57
2018-11-23T08:00:24.213Z,20.57
2018-11-23T08:01:28.301Z,20.55
2018-11-23T08:02:31.730Z,20.53
2018-11-23T08:03:35.213Z,20.52
2018-11-23T08:04:39.730Z,20.49
2018-11-23T08:05:43.559Z,20.50
2018-11-23T08:06:47.108Z,20.48
2018-11-23T08:07:50.583Z,20.48
2018-11-23T08:08:54.844Z,20.46
2018-11-23T08:09:57.505Z,20.44
2018-11-23T08:11:04.825Z,20.44
2018-11-23T08:12:09.401Z,20.42
2018-11-23T08:13:13.632Z,20.39
2018-11-23T08:14:17.316Z,20.38
2018-11-23T08:15:22.060Z,20.36
2018-11-23T08:16:25.498Z,20.34
2018-11-23T08:17:28.950Z,20.32
2018-11-23T08:18:32.424Z,20.31
2018-11-23T08:19:35.867Z,20.29
2018-11-23T08:20:40.974Z,20.28
2018-11-23T08:21:44.567Z,20.23
2018-11-23T08:22:49.466Z,20.23
2018-11-23T08:23:52.874Z,20.20
2018-11-23T08:24:56.301Z,20.19
2018-11-23T08:25:59.656Z,20.17
2018-11-23T08:27:03.113Z,20.15
2018-11-23T08:28:06.882Z,20.14
2018-11-23T08:29:12.104Z,20.12
2018-11-23T08:30:23.191Z,20.10
2018-11-23T08:31:26.902Z,20.07
2018-11-23T08:32:30.374Z,20.05
2018-11-23T08:33:34.161Z,20.04
2018-11-23T08:34:37.577Z,20.03
2018-11-23T08:35:40.994Z,20.02
2018-11-23T08:36:45.769Z,20.00
2018-11-23T08:37:49.424Z,20.00
2018-11-23T08:38:53.229Z,19.97
2018-11-23T08:39:57.943Z,19.96
2018-11-23T08:41:02.484Z,19.93
2018-11-23T08:42:06.730Z,19.92
2018-11-23T08:43:10.690Z,19.91
2018-11-23T08:44:15.274Z,19.90
2018-11-23T08:45:21.901Z,19.89
2018-11-23T08:46:25.338Z,19.90
2018-11-23T08:47:29.439Z,19.89
2018-11-23T08:48:32.881Z,19.88
2018-11-23T08:49:36.356Z,19.88
2018-11-23T08:50:39.841Z,19.87
2018-11-23T08:51:43.283Z,19.86
2018-11-23T08:52:46.730Z,19.85
2018-11-23T08:53:50.157Z,19.85
2018-11-23T08:54:53.607Z,19.83
2018-11-23T08:55:57.074Z,19.83
2018-11-23T08:57:00.556Z,19.82
2018-11-23T08:58:04.037Z,19.81
2018-11-23T08:59:07.442Z,19.81
2018-11-23T09:00:31.386Z,19.79
2018-11-23T09:01:34.815Z,19.77
2018-11-23T09:02:38.214Z,19.76
2018-11-23T09:03:41.641Z,19.73
2018-11-23T09:04:45.105Z,19.73
2018-11-23T09:05:48.532Z,19.72
2018-11-23T09:06:51.927Z,19.71
2018-11-23T09:07:56.291Z,19.70
2018-11-23T09:08:59.666Z,19.69
2018-11-23T09:10:03.117Z,19.69
2018-11-23T09:11:07.221Z,19.66
2018-11-23T09:12:10.698Z,19.64
2018-11-23T09:13:14.163Z,19.63
2018-11-23T09:14:17.570Z,19.63
2018-11-23T09:15:21.025Z,19.61
2018-11-23T09:16:24.475Z,19.61
2018-11-23T09:17:27.898Z,19.60
2018-11-23T09:18:31.700Z,19.59
2018-11-23T09:19:34.938Z,19.58
2018-11-23T09:20:38.347Z,19.57
2018-11-23T09:21:41.749Z,19.56
2018-11-23T09:22:45.540Z,19.54
2018-11-23T09:23:49.035Z,19.54
2018-11-23T09:24:52.612Z,19.53
2018-11-23T09:25:55.997Z,19.52
2018-11-23T09:26:59.422Z,19.52
2018-11-23T09:28:02.858Z,19.49
2018-11-23T09:29:06.383Z,19.51
2018-11-23T09:30:14.517Z,19.49
2018-11-23T09:31:17.967Z,19.47
2018-11-23T09:32:21.415Z,19.38
2018-11-23T09:33:24.860Z,19.33
2018-11-23T09:34:28.372Z,19.27
2018-11-23T09:35:31.808Z,19.21
2018-11-23T09:36:35.267Z,19.17
2018-11-23T09:37:39.543Z,19.12
2018-11-23T09:38:43.041Z,19.08
2018-11-23T09:39:46.603Z,19.06
2018-11-23T09:40:50.065Z,19.02
2018-11-23T09:41:53.457Z,18.97
2018-11-23T09:42:57.718Z,18.92
2018-11-23T09:44:01.162Z,18.85
2018-11-23T09:45:05.520Z,18.82
2018-11-23T09:46:08.953Z,18.74
2018-11-23T09:47:12.376Z,18.67
2018-11-23T09:48:15.925Z,18.63
2018-11-23T09:49:19.335Z,18.56
2018-11-23T09:50:23.710Z,18.52
2018-11-23T09:51:27.217Z,18.44
2018-11-23T09:52:30.693Z,18.36
2018-11-23T09:53:34.149Z,18.33
2018-11-23T09:54:37.559Z,18.30
2018-11-23T09:55:41.788Z,18.29
2018-11-23T09:56:45.708Z,18.30
2018-11-23T09:57:49.482Z,18.28
2018-11-23T09:58:52.913Z,18.24
2018-11-23T09:59:56.390Z,18.22
2018-11-23T10:00:59.863Z,18.24
2018-11-23T10:02:03.300Z,18.24
2018-11-23T10:03:07.350Z,18.24
2018-11-23T10:04:10.770Z,18.24
2018-11-23T10:05:15.007Z,18.25
2018-11-23T10:06:18.494Z,18.21
2018-11-23T10:07:21.933Z,18.22
2018-11-23T10:08:25.400Z,18.23
2018-11-23T10:09:28.888Z,18.22
2018-11-23T10:10:32.472Z,18.19
2018-11-23T10:11:35.925Z,18.16
2018-11-23T10:12:39.689Z,18.16
2018-11-23T10:13:43.090Z,18.12
2018-11-23T10:14:46.531Z,18.11
2018-11-23T10:15:50.066Z,18.11
2018-11-23T10:16:53.523Z,18.09
2018-11-23T10:17:56.984Z,18.11
2018-11-23T10:19:00.419Z,18.10
2018-11-23T10:20:04.576Z,18.09
2018-11-23T10:21:08.023Z,18.07
2018-11-23T10:22:11.464Z,18.06
2018-11-23T10:23:14.888Z,18.08
2018-11-23T10:24:18.294Z,18.05
2018-11-23T10:25:23.117Z,18.00
2018-11-23T10:26:26.588Z,17.99
2018-11-23T10:27:30.029Z,18.00
2018-11-23T10:28:33.478Z,18.02
2018-11-23T10:29:36.885Z,18.05
2018-11-23T10:30:40.309Z,18.04
2018-11-23T10:31:43.742Z,18.05
2018-11-23T10:32:48.315Z,18.06
2018-11-23T10:33:51.870Z,18.10
2018-11-23T10:34:55.321Z,18.12
2018-11-23T10:35:58.840Z,18.16
2018-11-23T10:37:02.231Z,18.18
2018-11-23T10:38:06.476Z,18.20
2018-11-23T10:39:09.957Z,18.22
2018-11-23T10:40:15.835Z,18.25
2018-11-23T10:41:19.268Z,18.28
2018-11-23T10:42:22.954Z,18.31
2018-11-23T10:43:26.429Z,18.33
2018-11-23T10:44:29.857Z,18.35
2018-11-23T10:45:34.006Z,18.37
2018-11-23T10:46:37.458Z,18.39
2018-11-23T10:47:41.180Z,18.42
2018-11-23T10:48:44.665Z,18.44
2018-11-23T10:49:48.092Z,18.46
2018-11-23T10:50:51.525Z,18.48
2018-11-23T10:51:54.942Z,18.50
2018-11-23T10:52:58.351Z,18.53
2018-11-23T10:54:01.792Z,18.53
2018-11-23T10:55:07.050Z,18.53
2018-11-23T10:56:10.474Z,18.56
2018-11-23T10:57:13.917Z,18.56
2018-11-23T10:58:17.442Z,18.57
2018-11-23T10:59:20.868Z,18.57
2018-11-23T11:00:29.743Z,18.58
2018-11-23T11:01:38.417Z,18.58
2018-11-23T11:02:45.182Z,18.59
2018-11-23T11:03:53.797Z,18.61
2018-11-23T11:05:30.668Z,18.63
2018-11-23T11:06:39.319Z,18.65
2018-11-23T11:07:42.717Z,18.65
2018-11-23T11:08:46.487Z,18.67
2018-11-23T11:09:49.934Z,18.68
2018-11-23T11:10:53.628Z,18.69
2018-11-23T11:11:57.044Z,18.69
2018-11-23T11:13:00.466Z,18.70
2018-11-23T11:14:03.948Z,18.73
2018-11-23T11:15:08.198Z,18.72
2018-11-23T11:16:14.566Z,18.73
2018-11-23T11:17:18.069Z,18.74
2018-11-23T11:18:21.479Z,18.75
2018-11-23T11:19:25.396Z,18.76
2018-11-23T11:20:28.835Z,18.76
2018-11-23T11:21:32.278Z,18.77
2018-11-23T11:22:35.838Z,18.78
2018-11-23T11:23:39.393Z,18.79
2018-11-23T11:24:42.920Z,18.80
2018-11-23T11:25:47.195Z,18.80
2018-11-23T11:26:50.621Z,18.81
2018-11-23T11:27:54.211Z,18.82
2018-11-23T11:28:57.693Z,18.81
2018-11-23T11:30:01.130Z,18.82
2018-11-23T11:31:04.965Z,18.81
2018-11-23T11:32:08.375Z,18.82
2018-11-23T11:33:11.793Z,18.83
2018-11-23T11:34:15.256Z,18.83
2018-11-23T11:35:18.721Z,18.84
2018-11-23T11:36:22.168Z,18.84
2018-11-23T11:37:25.603Z,18.85
2018-11-23T11:38:29.093Z,18.83
2018-11-23T11:39:32.468Z,18.84
2018-11-23T11:40:35.910Z,18.84
2018-11-23T11:41:39.532Z,18.84
2018-11-23T11:42:43.513Z,18.85
2018-11-23T11:43:47.008Z,18.84
2018-11-23T11:44:50.461Z,18.84
2018-11-23T11:45:53.889Z,18.84
2018-11-23T11:46:57.333Z,18.84
2018-11-23T11:48:00.751Z,18.84
2018-11-23T11:49:04.399Z,18.84
2018-11-23T11:50:09.630Z,18.84
2018-11-23T11:51:13.218Z,18.84
2018-11-23T11:52:16.634Z,18.83
2018-11-23T11:53:20.068Z,18.84
2018-11-23T11:54:23.491Z,18.84
2018-11-23T11:55:26.887Z,18.84
2018-11-23T11:56:30.339Z,18.83
2018-11-23T11:57:33.735Z,18.84
2018-11-23T11:58:37.430Z,18.83
2018-11-23T11:59:40.883Z,18.83
2018-11-23T12:00:44.311Z,18.82
2018-11-23T12:01:47.955Z,18.82
2018-11-23T12:02:51.353Z,18.81
2018-11-23T12:03:55.318Z,18.81
2018-11-23T12:04:58.739Z,18.83
2018-11-23T12:06:02.155Z,18.83
2018-11-23T12:07:06.229Z,18.83
2018-11-23T12:08:09.629Z,18.83
2018-11-23T12:09:13.150Z,18.85
2018-11-23T12:10:19.485Z,18.87
2018-11-23T12:11:22.911Z,18.89
2018-11-23T12:12:26.526Z,18.91
2018-11-23T12:13:29.939Z,18.92
2018-11-23T12:14:33.351Z,18.95
2018-11-23T12:15:36.750Z,18.97
2018-11-23T12:16:40.194Z,18.98
2018-11-23T12:17:43.853Z,18.99
2018-11-23T12:18:47.318Z,19.00
2018-11-23T12:19:51.608Z,19.01
2018-11-23T12:20:55.172Z,19.02
2018-11-23T12:21:58.709Z,19.03
2018-11-23T12:23:02.472Z,19.02
2018-11-23T12:24:06.586Z,19.05
2018-11-23T12:25:10.399Z,19.04
2018-11-23T12:26:14.423Z,19.05
2018-11-23T12:27:17.918Z,19.05
2018-11-23T12:28:21.340Z,19.04
2018-11-23T12:29:24.751Z,19.05
2018-11-23T12:30:29.131Z,19.05
2018-11-23T12:31:32.625Z,19.06
2018-11-23T12:32:36.062Z,19.05
2018-11-23T12:33:39.471Z,19.05
2018-11-23T12:34:42.930Z,19.05
2018-11-23T12:35:46.646Z,19.05
2018-11-23T12:36:50.128Z,19.05
2018-11-23T12:37:53.595Z,19.05
2018-11-23T12:38:56.983Z,19.04
2018-11-23T12:40:00.411Z,19.04
2018-11-23T12:41:03.852Z,19.05
2018-11-23T12:42:07.288Z,19.04
2018-11-23T12:43:10.721Z,19.04
2018-11-23T12:44:14.389Z,19.05
2018-11-23T12:45:20.916Z,19.03
2018-11-23T12:46:24.314Z,19.03
2018-11-23T12:47:27.702Z,19.03
2018-11-23T12:48:31.142Z,19.03
2018-11-23T12:49:34.570Z,19.03
2018-11-23T12:50:38.065Z,19.03
2018-11-23T12:51:41.486Z,19.03
2018-11-23T12:52:45.109Z,19.03
2018-11-23T12:53:48.524Z,19.02
2018-11-23T12:54:51.944Z,19.02
2018-11-23T12:55:55.373Z,19.02
2018-11-23T12:56:58.800Z,19.01
2018-11-23T12:58:02.234Z,19.01
2018-11-23T12:59:05.987Z,19.02
2018-11-23T13:00:16.624Z,19.01
2018-11-23T13:01:20.509Z,19.01
2018-11-23T13:02:23.936Z,19.00
2018-11-23T13:03:27.597Z,19.01
2018-11-23T13:04:31.394Z,19.01
2018-11-23T13:05:35.779Z,19.00
2018-11-23T13:06:39.174Z,19.00
2018-11-23T13:07:42.615Z,19.00
2018-11-23T13:08:46.121Z,18.99
2018-11-23T13:09:49.539Z,19.00
2018-11-23T13:10:52.933Z,18.99
2018-11-23T13:11:56.382Z,18.98
2018-11-23T13:13:00.438Z,18.98
2018-11-23T13:14:03.875Z,18.99
2018-11-23T13:15:07.991Z,18.97
2018-11-23T13:16:11.421Z,18.97
2018-11-23T13:17:14.876Z,18.97
2018-11-23T13:18:18.348Z,18.96
2018-11-23T13:19:21.762Z,18.96
2018-11-23T13:20:25.257Z,19.00
2018-11-23T13:21:28.710Z,19.10
2018-11-23T13:22:32.133Z,19.17
2018-11-23T13:23:35.540Z,19.28
2018-11-23T13:24:38.977Z,19.42
2018-11-23T13:25:42.427Z,19.55
2018-11-23T13:26:45.866Z,19.70
2018-11-23T13:27:49.274Z,19.83
2018-11-23T13:28:52.678Z,19.98
2018-11-23T13:29:56.094Z,20.10
2018-11-23T13:30:59.513Z,20.18
2018-11-23T13:32:02.935Z,20.30
2018-11-23T13:33:06.454Z,20.40
2018-11-23T13:34:09.883Z,20.44
2018-11-23T13:35:15.188Z,20.49
2018-11-23T13:36:18.649Z,20.54
2018-11-23T13:37:22.068Z,20.56
2018-11-23T13:38:25.475Z,20.58
2018-11-23T13:39:28.860Z,20.60
2018-11-23T13:40:32.348Z,20.62
2018-11-23T13:41:35.820Z,20.69
2018-11-23T13:42:39.381Z,20.69